Time;durP1;ratioP1;P1;durP2;ratioP2;P2;SDS_P1;SDS_P2;PMS_P1;PMS_P2;Temp;Humidity;BMP_temperature;BMP_pressure;BME280_temperature;BME280_humidity;BME280_pressure;Samples;Min_cycle;Max_cycle;Signal;HPM_P1;HPM_P2
2024/04/19 00:01:20;;;;;;;1999.90;999.90;;;;;;;7.52;100.00;101336.69;11361178;26;19998;-65
2024/04/19 00:06:22;;;;;;;1999.90;999.90;;;;;;;7.31;100.00;101317.44;11361246;26;19998;-64
2024/04/19 00:11:25;;;;;;;1999.90;999.90;;;;;;;7.20;100.00;101306.59;11361020;26;20013;-64
2024/04/19 00:16:27;;;;;;;1999.90;999.90;;;;;;;7.37;100.00;101299.00;11359188;26;19998;-66
2024/04/19 00:21:30;;;;;;;1999.90;999.90;;;;;;;7.02;100.00;101276.81;11360584;26;20059;-64
2024/04/19 00:26:32;;;;;;;1999.90;999.90;;;;;;;7.13;100.00;101276.44;11360475;26;20005;-64
2024/04/19 00:31:35;;;;;;;1999.90;999.90;;;;;;;7.23;100.00;101255.22;11360432;26;20004;-65
2024/04/19 00:36:37;;;;;;;1999.90;999.90;;;;;;;7.10;100.00;101255.75;11360167;26;19998;-64
2024/04/19 00:41:40;;;;;;;1999.90;999.90;;;;;;;7.14;100.00;101265.97;11359618;26;20026;-65
2024/04/19 00:46:42;;;;;;;1999.90;999.90;;;;;;;6.94;100.00;101248.44;11359767;26;20453;-64
2024/04/19 00:51:45;;;;;;;1999.90;999.90;;;;;;;6.87;100.00;101240.00;11359485;26;20010;-65
2024/04/19 00:56:48;;;;;;;1999.90;999.90;;;;;;;6.93;100.00;101230.28;11359516;26;19998;-64
2024/04/19 01:01:50;;;;;;;1999.90;999.90;;;;;;;6.83;100.00;101227.16;11359228;26;20009;-64
2024/04/19 01:06:53;;;;;;;1999.90;999.90;;;;;;;6.98;100.00;101230.97;11327543;26;20548;-65
2024/04/19 01:11:56;;;;;;;1999.90;999.90;;;;;;;7.04;100.00;101209.91;11364436;26;20034;-65
2024/04/19 01:16:58;;;;;;;1999.90;999.90;;;;;;;6.82;100.00;101195.06;11366471;26;20013;-64
2024/04/19 01:22:00;;;;;;;1999.90;999.90;;;;;;;7.14;100.00;101187.00;11366208;26;20457;-64
2024/04/19 01:27:03;;;;;;;1999.90;999.90;;;;;;;6.77;100.00;101170.94;11364521;26;19998;-64
2024/04/19 01:32:06;;;;;;;1999.90;999.90;;;;;;;6.97;100.00;101167.63;11365866;26;20427;-65
2024/04/19 01:37:08;;;;;;;1999.90;999.90;;;;;;;7.04;100.00;101157.84;11365841;26;19998;-65
2024/04/19 01:42:11;;;;;;;1999.90;999.90;;;;;;;7.00;100.00;101140.66;11365337;26;19999;-64
2024/04/19 01:47:13;;;;;;;1999.90;999.90;;;;;;;7.11;100.00;101137.63;11365183;26;20006;-65
2024/04/19 01:52:16;;;;;;;1999.90;999.90;;;;;;;6.84;100.00;101124.72;11365417;26;20010;-65
2024/04/19 01:57:18;;;;;;;1999.90;999.90;;;;;;;7.21;100.00;101120.75;11365192;26;20066;-65
2024/04/19 02:02:21;;;;;;;1999.90;999.90;;;;;;;7.05;100.00;101108.31;11364763;26;20035;-64
2024/04/19 02:07:23;;;;;;;1999.90;999.90;;;;;;;6.95;100.00;101096.56;11364946;26;20078;-65
2024/04/19 02:12:26;;;;;;;1999.90;999.90;;;;;;;7.35;100.00;101083.78;11364796;26;19998;-64
2024/04/19 02:17:28;;;;;;;1999.90;999.90;;;;;;;7.17;100.00;101065.34;11364630;26;19998;-64
2024/04/19 02:22:31;;;;;;;1999.90;999.90;;;;;;;6.81;100.00;101060.66;11364202;26;20341;-64
2024/04/19 02:32:55;;;;;;;1999.90;999.90;;;;;;;7.06;100.00;101039.72;11364206;26;20464;-64
2024/04/19 02:37:57;;;;;;;1999.90;999.90;;;;;;;7.07;100.00;101030.16;11363863;26;19994;-64
2024/04/19 02:43:00;;;;;;;1999.90;999.90;;;;;;;7.29;100.00;101011.09;11363768;26;19998;-64
2024/04/19 02:48:02;;;;;;;1999.90;999.90;;;;;;;7.09;100.00;100989.28;11363679;26;19998;-64
2024/04/19 02:53:05;;;;;;;1999.90;999.90;;;;;;;7.06;100.00;100985.06;11363564;26;20394;-64
2024/04/19 02:58:07;;;;;;;1999.90;999.90;;;;;;;7.03;100.00;100977.38;11363013;26;20009;-64
2024/04/19 03:03:10;;;;;;;1999.90;999.90;;;;;;;6.98;100.00;100971.50;11361109;26;20009;-64
2024/04/19 03:08:13;;;;;;;1999.90;999.90;;;;;;;7.25;100.00;100960.88;11363197;26;20085;-64
2024/04/19 03:13:15;;;;;;;1999.90;999.90;;;;;;;7.06;100.00;100945.13;11361221;26;20447;-64
2024/04/19 03:18:18;;;;;;;1999.90;999.90;;;;;;;7.23;100.00;100942.72;11362980;26;20348;-64
2024/04/19 03:23:20;;;;;;;1999.90;999.90;;;;;;;7.00;100.00;100919.38;11362422;26;20030;-63
2024/04/19 03:28:23;;;;;;;1999.90;999.90;;;;;;;7.05;100.00;100915.66;11362186;26;20013;-64
2024/04/19 03:33:26;;;;;;;1999.90;999.90;;;;;;;7.02;100.00;100909.72;11361394;26;19999;-64
2024/04/19 03:38:28;;;;;;;1999.90;999.90;;;;;;;7.17;100.00;100893.47;11360436;26;20046;-63
2024/04/19 03:43:40;;;;;;;1999.90;999.90;;;;;;;6.93;100.00;100900.56;11361883;26;20034;-64
2024/04/19 03:48:42;;;;;;;1999.90;999.90;;;;;;;6.92;100.00;100878.03;11359915;26;20038;-64
2024/04/19 03:53:45;;;;;;;1999.90;999.90;;;;;;;6.88;100.00;100872.09;11361731;26;20074;-64
2024/04/19 03:58:47;;;;;;;1999.90;999.90;;;;;;;6.91;100.00;100862.47;11361580;26;19998;-64
2024/04/19 04:03:53;;;;;;;1999.90;999.90;;;;;;;6.97;100.00;100857.84;11361669;26;19998;-64
2024/04/19 04:08:56;;;;;;;1999.90;999.90;;;;;;;6.93;100.00;100845.88;11360931;26;19998;-64
2024/04/19 04:13:59;;;;;;;1999.90;999.90;;;;;;;6.98;100.00;100843.09;11361594;26;19998;-64
2024/04/19 04:19:02;;;;;;;1999.90;999.90;;;;;;;7.04;100.00;100830.69;11360959;26;19998;-64
2024/04/19 04:24:05;;;;;;;1999.90;999.90;;;;;;;7.01;100.00;100829.94;11359229;26;20456;-64
2024/04/19 04:29:08;;;;;;;1999.90;999.90;;;;;;;7.28;100.00;100820.13;11360630;26;20013;-64
2024/04/19 04:34:10;;;;;;;1999.90;999.90;;;;;;;7.23;100.00;100811.66;11360788;26;20002;-64
2024/04/19 04:39:13;;;;;;;1999.90;999.90;;;;;;;7.14;100.00;100805.06;11360429;26;20070;-64
2024/04/19 04:44:15;;;;;;;1999.90;999.90;;;;;;;7.07;100.00;100804.47;11358502;26;20008;-64
2024/04/19 04:49:17;;;;;;;1999.90;999.90;;;;;;;7.28;100.00;100804.50;11359852;26;19998;-64
2024/04/19 04:54:20;;;;;;;1999.90;999.90;;;;;;;7.18;100.00;100803.22;11359896;26;19998;-64
2024/04/19 04:59:22;;;;;;;1999.90;999.90;;;;;;;7.22;100.00;100792.56;11359758;26;19998;-64
2024/04/19 05:04:25;;;;;;;1999.90;999.90;;;;;;;7.28;100.00;100786.28;11358483;26;20013;-65
2024/04/19 05:09:28;;;;;;;1999.90;999.90;;;;;;;7.44;100.00;100789.03;11359116;26;20042;-64
2024/04/19 05:14:30;;;;;;;1999.90;999.90;;;;;;;7.19;100.00;100786.66;11359369;26;20032;-64
2024/04/19 05:19:33;;;;;;;1999.90;999.90;;;;;;;7.36;100.00;100776.38;11358885;26;20349;-65
2024/04/19 05:24:35;;;;;;;1999.90;999.90;;;;;;;7.54;100.00;100779.06;11357519;26;19998;-64
2024/04/19 05:29:38;;;;;;;1999.90;999.90;;;;;;;7.40;100.00;100759.66;11358491;26;20006;-64
2024/04/19 05:34:42;;;;;;;1999.90;999.90;;;;;;;7.51;100.00;100766.16;11358706;26;20034;-64
2024/04/19 05:39:44;;;;;;;1999.90;999.90;;;;;;;7.54;100.00;100766.03;11356594;26;19998;-65
2024/04/19 05:44:47;;;;;;;1999.90;999.90;;;;;;;7.61;100.00;100754.41;11357942;26;20023;-64
2024/04/19 05:49:49;;;;;;;1999.90;999.90;;;;;;;7.58;100.00;100755.41;11357659;26;20445;-65
2024/04/19 05:54:52;;;;;;;1999.90;999.90;;;;;;;7.72;100.00;100744.34;11360108;26;19998;-65
2024/04/19 05:59:54;;;;;;;1999.90;999.90;;;;;;;8.12;100.00;100745.06;11365069;26;20082;-65
2024/04/19 06:04:57;;;;;;;1999.90;999.90;;;;;;;8.11;100.00;100734.72;11362877;26;20008;-64
2024/04/19 06:09:59;;;;;;;1999.90;999.90;;;;;;;8.05;100.00;100737.59;11364833;26;20481;-64
2024/04/19 06:15:02;;;;;;;1999.90;999.90;;;;;;;8.18;100.00;100733.47;11364983;26;19999;-64
2024/04/19 06:20:05;;;;;;;1999.90;999.90;;;;;;;8.32;100.00;100730.19;11364199;26;19998;-63
2024/04/19 06:25:09;;;;;;;1999.90;999.90;;;;;;;8.33;100.00;100739.72;11361049;26;20016;-64
2024/04/19 06:30:12;;;;;;;1999.90;999.90;;;;;;;8.46;100.00;100742.63;11314647;26;20051;-71
2024/04/19 06:35:18;;;;;;;1999.90;999.90;;;;;;;8.55;100.00;100732.53;11329790;26;20047;-64
2024/04/19 06:40:21;;;;;;;1999.90;999.90;;;;;;;8.90;100.00;100739.53;11336699;26;20013;-64
2024/04/19 06:45:24;;;;;;;1999.90;999.90;;;;;;;9.10;100.00;100720.22;11336096;26;20012;-62
2024/04/19 06:50:27;;;;;;;1999.90;999.90;;;;;;;9.18;100.00;100720.66;11335900;26;20013;-63
2024/04/19 06:55:32;;;;;;;1999.90;999.90;;;;;;;9.18;100.00;100719.78;11323202;26;20002;-63
2024/04/19 07:00:38;;;;;;;1999.90;999.90;;;;;;;9.34;100.00;100714.63;11334399;26;20372;-70
2024/04/19 07:06:09;;;;;;;1999.90;999.90;;;;;;;9.24;100.00;100696.81;11334785;26;20344;-65
2024/04/19 07:11:13;;;;;;;1999.90;999.90;;;;;;;9.35;100.00;100706.69;11364843;26;20009;-65
2024/04/19 07:16:16;;;;;;;1999.90;999.90;;;;;;;9.32;100.00;100713.84;11364291;26;20030;-65
2024/04/19 07:21:19;;;;;;;1999.90;999.90;;;;;;;9.59;100.00;100709.75;11331195;26;20467;-66
2024/04/19 07:26:21;;;;;;;1999.90;999.90;;;;;;;9.54;100.00;100711.75;11359710;26;20032;-66
2024/04/19 07:31:24;;;;;;;1999.90;999.90;;;;;;;9.75;100.00;100703.66;11351140;26;20091;-65
2024/04/19 07:36:26;;;;;;;1999.90;999.90;;;;;;;9.81;100.00;100698.09;11351293;26;20026;-64
2024/04/19 07:41:29;;;;;;;1999.90;999.90;;;;;;;10.04;100.00;100705.50;11351686;26;20002;-63
2024/04/19 07:46:31;;;;;;;1999.90;999.90;;;;;;;10.29;100.00;100705.88;11361610;26;20042;-64
2024/04/19 07:51:34;;;;;;;1999.90;999.90;;;;;;;10.04;100.00;100689.81;11361727;26;20008;-64
2024/04/19 07:56:36;;;;;;;1999.90;999.90;;;;;;;10.12;100.00;100694.63;11260257;20;20049;-63
2024/04/19 08:01:39;;;;;;;1999.90;999.90;;;;;;;9.73;100.00;100687.22;11211899;26;20040;-63
2024/04/19 08:06:41;;;;;;;1999.90;999.90;;;;;;;9.97;100.00;100703.31;11210387;26;20046;-63
2024/04/19 08:11:44;;;;;;;1999.90;999.90;;;;;;;9.65;100.00;100695.50;11211659;26;20011;-63
2024/04/19 08:16:46;;;;;;;1999.90;999.90;;;;;;;9.46;100.00;100677.34;11209413;26;19999;-63
2024/04/19 08:21:49;;;;;;;1999.90;999.90;;;;;;;9.16;100.00;100685.91;11211507;26;20014;-63
2024/04/19 08:26:52;;;;;;;1999.90;999.90;;;;;;;9.18;100.00;100686.69;11211108;26;20007;-63
2024/04/19 08:31:54;;;;;;;1999.90;999.90;;;;;;;9.52;100.00;100674.41;11209398;26;20454;-65
2024/04/19 08:36:57;;;;;;;1999.90;999.90;;;;;;;9.82;100.00;100666.66;11210531;26;20475;-65
2024/04/19 08:42:04;;;;;;;1999.90;999.90;;;;;;;9.83;100.00;100677.94;11210496;26;20022;-64
2024/04/19 08:47:08;;;;;;;1999.90;999.90;;;;;;;9.86;100.00;100675.16;11208744;26;20012;-64
2024/04/19 08:52:10;;;;;;;1999.90;999.90;;;;;;;10.28;100.00;100683.25;11208669;26;20014;-64
2024/04/19 08:57:37;;;;;;;1999.90;999.90;;;;;;;10.30;100.00;100669.13;11210117;26;20014;-64
2024/04/19 09:02:39;;;;;;;1999.90;999.90;;;;;;;10.11;100.00;100673.78;11209999;26;20000;-64
2024/04/19 09:07:42;;;;;;;1999.90;999.90;;;;;;;9.82;100.00;100686.72;11209702;26;20327;-64
2024/04/19 09:12:45;;;;;;;1999.90;999.90;;;;;;;9.42;100.00;100676.69;11209304;26;20000;-64
2024/04/19 09:17:48;;;;;;;1999.90;999.90;;;;;;;9.42;100.00;100694.97;11207777;26;20014;-64
2024/04/19 09:22:51;;;;;;;1999.90;999.90;;;;;;;9.37;100.00;100685.72;11208443;26;20028;-64
2024/04/19 09:27:55;;;;;;;1999.90;999.90;;;;;;;9.14;100.00;100692.16;11208993;26;20349;-63
2024/04/19 09:32:58;;;;;;;1999.90;999.90;;;;;;;8.91;100.00;100694.22;11215418;26;20000;-63
2024/04/19 09:38:00;;;;;;;1999.90;999.90;;;;;;;8.81;100.00;100701.69;11216149;26;19999;-63
2024/04/19 09:43:06;;;;;;;1999.90;999.90;;;;;;;8.68;100.00;100688.41;11215741;26;20000;-63
2024/04/19 09:48:15;;;;;;;1999.90;999.90;;;;;;;8.92;100.00;100675.84;11215635;26;20015;-63
2024/04/19 09:53:33;;;;;;;1999.90;999.90;;;;;;;9.73;100.00;100661.09;11215749;26;20351;-63
2024/04/19 09:58:36;;;;;;;1999.90;999.90;;;;;;;10.10;100.00;100648.53;11155438;26;20000;-63
2024/04/19 10:03:39;;;;;;;1999.90;999.90;;;;;;;10.33;100.00;100634.97;11215447;26;20454;-64
2024/04/19 10:08:43;;;;;;;1999.90;999.90;;;;;;;12.80;100.00;100635.84;11214576;26;20015;-64
2024/04/19 10:13:46;;;;;;;1999.90;999.90;;;;;;;13.07;100.00;100623.53;11183498;26;20000;-64
2024/04/19 10:18:50;;;;;;;1999.90;999.90;;;;;;;13.07;100.00;100620.91;11183963;26;20014;-64
2024/04/19 10:23:55;;;;;;;1999.90;999.90;;;;;;;12.31;100.00;100618.22;11214616;26;20035;-64
2024/04/19 10:28:58;;;;;;;1999.90;999.90;;;;;;;11.50;100.00;100621.75;11184135;26;19996;-64
2024/04/19 10:34:00;;;;;;;1999.90;999.90;;;;;;;12.94;100.00;100613.88;11214670;26;20004;-64
2024/04/19 10:39:03;;;;;;;1999.90;999.90;;;;;;;13.38;100.00;100598.53;11214296;26;20014;-64
2024/04/19 10:44:13;;;;;;;1999.90;999.90;;;;;;;12.95;100.00;100594.53;11214145;26;20010;-64
2024/04/19 10:49:20;;;;;;;1999.90;999.90;;;;;;;12.53;100.00;100591.34;11214471;26;20343;-65
2024/04/19 10:54:22;;;;;;;1999.90;999.90;;;;;;;11.92;100.00;100590.22;11213921;26;19999;-64
2024/04/19 10:59:25;;;;;;;1999.90;999.90;;;;;;;12.45;100.00;100589.22;11213561;26;20484;-64
2024/04/19 11:04:28;;;;;;;1999.90;999.90;;;;;;;12.97;100.00;100599.69;11213950;26;20018;-66
2024/04/19 11:09:31;;;;;;;1999.90;999.90;;;;;;;13.07;97.13;100586.75;11182898;26;20007;-65
2024/04/19 11:14:34;;;;;;;1999.90;999.90;;;;;;;12.89;98.03;100592.31;11213926;26;20012;-65
2024/04/19 11:19:36;;;;;;;1999.90;999.90;;;;;;;9.71;100.00;100662.94;11212614;26;20000;-64
2024/04/19 11:24:39;;;;;;;1999.90;999.90;;;;;;;8.40;100.00;100657.63;11152583;26;19999;-64
2024/04/19 11:29:42;;;;;;;1999.90;999.90;;;;;;;8.50;100.00;100650.22;11213188;26;19999;-63
2024/04/19 11:34:47;;;;;;;1999.90;999.90;;;;;;;8.67;100.00;100638.91;11181746;26;19999;-64
2024/04/19 11:39:50;;;;;;;1999.90;999.90;;;;;;;8.95;100.00;100643.53;11212191;26;20334;-65
2024/04/19 11:44:53;;;;;;;1999.90;999.90;;;;;;;9.15;100.00;100647.69;11211758;26;20333;-64
2024/04/19 11:49:58;;;;;;;1999.90;999.90;;;;;;;9.34;100.00;100644.91;11211365;26;20014;-65
2024/04/19 11:55:01;;;;;;;1999.90;999.90;;;;;;;9.58;100.00;100681.94;11211007;26;19999;-64
2024/04/19 12:00:05;;;;;;;1999.90;999.90;;;;;;;8.74;100.00;100671.56;11212063;26;20014;-64
2024/04/19 12:05:07;;;;;;;1999.90;999.90;;;;;;;8.68;100.00;100679.75;11211880;26;20096;-63
2024/04/19 12:10:10;;;;;;;1999.90;999.90;;;;;;;8.46;100.00;100675.63;11211781;26;20076;-63
2024/04/19 12:15:12;;;;;;;1999.90;999.90;;;;;;;8.68;100.00;100669.31;11212030;26;20003;-64
2024/04/19 12:20:35;;;;;;;1999.90;999.90;;;;;;;8.59;100.00;100669.75;11211229;26;20015;-63
2024/04/19 12:25:52;;;;;;;1999.90;999.90;;;;;;;10.00;100.00;100672.63;11211237;26;20000;-64
2024/04/19 12:30:56;;;;;;;1999.90;999.90;;;;;;;11.73;100.00;100664.00;11211295;26;20011;-65
2024/04/19 12:35:59;;;;;;;1999.90;999.90;;;;;;;11.86;100.00;100651.78;11180139;26;19999;-64
2024/04/19 12:41:02;;;;;;;1999.90;999.90;;;;;;;11.63;100.00;100664.59;11210601;26;20073;-65
2024/04/19 12:46:04;;;;;;;1999.90;999.90;;;;;;;9.93;100.00;100734.03;11210338;26;20350;-63
2024/04/19 12:51:07;;;;;;;1999.90;999.90;;;;;;;8.32;100.00;100706.72;11211269;26;20031;-64
2024/04/19 12:56:09;;;;;;;1999.90;999.90;;;;;;;10.54;100.00;100698.31;11182380;26;20049;-64
2024/04/19 13:01:14;;;;;;;1999.90;999.90;;;;;;;12.62;100.00;100693.13;11210185;26;20011;-64
2024/04/19 13:06:16;;;;;;;1999.90;999.90;;;;;;;12.00;100.00;100698.13;11208364;26;20011;-64
2024/04/19 13:11:19;;;;;;;1999.90;999.90;;;;;;;9.71;100.00;100736.16;11209553;26;19999;-64
2024/04/19 13:16:21;;;;;;;1999.90;999.90;;;;;;;9.26;100.00;100734.16;11209076;26;20004;-64
2024/04/19 13:21:26;;;;;;;1999.90;999.90;;;;;;;12.22;100.00;100737.78;11178319;26;20000;-64
2024/04/19 13:26:29;;;;;;;1999.90;999.90;;;;;;;11.06;100.00;100730.19;11209071;26;20072;-64
2024/04/19 13:31:32;;;;;;;1999.90;999.90;;;;;;;10.54;100.00;100727.13;11177684;26;19999;-65
2024/04/19 13:36:35;;;;;;;1999.90;999.90;;;;;;;11.15;100.00;100721.78;11208720;26;20004;-64
2024/04/19 13:41:38;;;;;;;1999.90;999.90;;;;;;;11.89;97.74;100732.91;11208737;26;19999;-65
2024/04/19 13:46:41;;;;;;;1999.90;999.90;;;;;;;12.19;96.80;100731.91;11208210;26;20000;-65
2024/04/19 13:51:43;;;;;;;1999.90;999.90;;;;;;;12.60;88.68;100725.69;11207919;26;19999;-65
2024/04/19 13:56:48;;;;;;;1999.90;999.90;;;;;;;12.56;89.93;100740.00;11207501;26;20478;-65
2024/04/19 14:01:50;;;;;;;1999.90;999.90;;;;;;;10.58;97.61;100746.94;11207685;26;20000;-66
2024/04/19 14:06:53;;;;;;;1999.90;999.90;;;;;;;10.34;100.00;100748.34;11207774;26;20000;-66
2024/04/19 14:11:57;;;;;;;1999.90;999.90;;;;;;;10.30;99.57;100752.03;11207445;26;19999;-65
2024/04/19 14:16:59;;;;;;;1999.90;999.90;;;;;;;9.47;97.80;100758.28;11211461;26;20007;-65
2024/04/19 14:22:02;;;;;;;1999.90;999.90;;;;;;;9.59;96.24;100755.97;11215001;26;20003;-66
2024/04/19 14:27:05;;;;;;;1999.90;999.90;;;;;;;10.96;92.66;100763.94;11214601;26;20342;-67
2024/04/19 14:32:08;;;;;;;1999.90;999.90;;;;;;;10.93;90.91;100778.06;11214875;26;20004;-66
2024/04/19 14:37:10;;;;;;;1999.90;999.90;;;;;;;9.42;96.19;100783.00;11214392;26;20008;-66
2024/04/19 14:42:13;;;;;;;1999.90;999.90;;;;;;;8.98;98.38;100786.13;11214176;26;20000;-65
2024/04/19 14:47:15;;;;;;;1999.90;999.90;;;;;;;11.22;91.32;100775.50;11213651;26;20000;-66
2024/04/19 14:52:18;;;;;;;1999.90;999.90;;;;;;;9.83;89.91;100791.25;11213497;26;20458;-67
2024/04/19 14:57:21;;;;;;;1999.90;999.90;;;;;;;10.74;91.23;100798.41;11212799;26;19999;-68
2024/04/19 15:02:23;;;;;;;1999.90;999.90;;;;;;;11.93;81.75;100807.88;11211494;26;20447;-66
2024/04/19 15:07:26;;;;;;;1999.90;999.90;;;;;;;11.71;79.09;100809.19;11181691;26;20000;-68
2024/04/19 15:12:28;;;;;;;1999.90;999.90;;;;;;;10.95;85.62;100818.13;11213354;26;19999;-67
2024/04/19 15:17:31;;;;;;;1999.90;999.90;;;;;;;9.74;93.75;100822.25;11212215;26;20084;-68
2024/04/19 15:22:33;;;;;;;1999.90;999.90;;;;;;;10.16;100.00;100834.78;11212818;26;20011;-67
2024/04/19 15:27:36;;;;;;;1999.90;999.90;;;;;;;12.11;94.04;100816.38;11210848;26;20109;-67
2024/04/19 15:32:39;;;;;;;1999.90;999.90;;;;;;;10.50;88.13;100824.22;11211573;26;20032;-66
2024/04/19 15:37:42;;;;;;;1999.90;999.90;;;;;;;9.25;90.63;100847.41;11212546;26;19999;-65
2024/04/19 15:42:45;;;;;;;1999.90;999.90;;;;;;;9.29;96.45;100841.09;11212033;26;20014;-67
2024/04/19 15:47:49;;;;;;;1999.90;999.90;;;;;;;10.54;87.11;100849.28;11212001;26;20010;-67
2024/04/19 15:52:53;;;;;;;1999.90;999.90;;;;;;;10.97;84.69;100837.19;11211516;26;20014;-67
2024/04/19 15:57:55;;;;;;;1999.90;999.90;;;;;;;11.06;86.19;100846.31;11208036;26;20003;-67
2024/04/19 16:02:58;;;;;;;1999.90;999.90;;;;;;;10.48;86.25;100847.03;11211634;26;20072;-67
2024/04/19 16:08:00;;;;;;;1999.90;999.90;;;;;;;9.99;82.87;100846.16;11211930;26;20000;-67
2024/04/19 16:13:03;;;;;;;1999.90;999.90;;;;;;;10.13;85.72;100850.63;11211579;26;20008;-67
2024/04/19 16:18:06;;;;;;;1999.90;999.90;;;;;;;10.32;86.78;100852.28;11211233;26;20043;-67
2024/04/19 16:23:08;;;;;;;1999.90;999.90;;;;;;;9.77;87.84;100867.38;11211177;26;20442;-67
2024/04/19 16:28:11;;;;;;;1999.90;999.90;;;;;;;10.28;87.36;100858.59;11211201;26;20270;-67
2024/04/19 16:33:13;;;;;;;1999.90;999.90;;;;;;;10.09;86.98;100869.22;11211028;26;20000;-68
2024/04/19 16:38:16;;;;;;;1999.90;999.90;;;;;;;9.73;86.35;100881.53;11210796;26;20466;-68
2024/04/19 16:43:19;;;;;;;1999.90;999.90;;;;;;;10.12;84.92;100879.50;11210599;26;20010;-66
2024/04/19 16:48:22;;;;;;;1999.90;999.90;;;;;;;9.48;87.80;100888.06;11179016;26;20000;-67
2024/04/19 16:53:24;;;;;;;1999.90;999.90;;;;;;;9.69;87.75;100887.03;11179505;26;19999;-67
2024/04/19 16:58:27;;;;;;;1999.90;999.90;;;;;;;9.50;87.39;100893.22;11204680;26;19996;-67
2024/04/19 17:03:29;;;;;;;1999.90;999.90;;;;;;;9.07;90.79;100911.88;11209758;26;20354;-68
2024/04/19 17:08:32;;;;;;;1999.90;999.90;;;;;;;8.36;100.00;100943.06;11209788;26;19995;-67
2024/04/19 17:13:34;;;;;;;1999.90;999.90;;;;;;;8.10;100.00;100941.63;11209912;26;20014;-65
2024/04/19 17:18:37;;;;;;;1999.90;999.90;;;;;;;7.83;100.00;100965.38;11209934;26;19999;-67
2024/04/19 17:23:39;;;;;;;1999.90;999.90;;;;;;;7.37;100.00;100988.19;11207564;26;20007;-66
2024/04/19 17:28:42;;;;;;;1999.90;999.90;;;;;;;7.24;100.00;100986.06;11207631;26;20000;-67
2024/04/19 17:33:44;;;;;;;1999.90;999.90;;;;;;;7.36;100.00;100991.69;11208970;26;19999;-66
2024/04/19 17:38:47;;;;;;;1999.90;999.90;;;;;;;7.32;100.00;100980.56;11208794;26;20012;-66
2024/04/19 17:43:49;;;;;;;1999.90;999.90;;;;;;;7.53;100.00;100984.03;11208680;26;20458;-66
2024/04/19 17:48:52;;;;;;;1999.90;999.90;;;;;;;7.54;100.00;100997.91;11208168;26;20027;-67
2024/04/19 17:53:54;;;;;;;1999.90;999.90;;;;;;;7.18;100.00;100993.31;11215099;26;20014;-67
2024/04/19 17:58:57;;;;;;;1999.90;999.90;;;;;;;7.21;100.00;101000.97;11215750;26;20028;-66
2024/04/19 18:03:59;;;;;;;1999.90;999.90;;;;;;;7.16;100.00;101005.50;11184251;26;20000;-66
2024/04/19 18:09:02;;;;;;;1999.90;999.90;;;;;;;7.30;100.00;101024.06;11215351;26;20011;-67
2024/04/19 18:14:05;;;;;;;1999.90;999.90;;;;;;;7.51;100.00;101037.09;11184166;26;20012;-67
2024/04/19 18:19:10;;;;;;;1999.90;999.90;;;;;;;7.28;100.00;101058.88;11215061;26;20350;-67
2024/04/19 18:24:12;;;;;;;1999.90;999.90;;;;;;;7.20;100.00;101059.19;11214889;26;20007;-66
2024/04/19 18:29:15;;;;;;;1999.90;999.90;;;;;;;7.19;100.00;101071.34;11214291;26;20471;-66
2024/04/19 18:34:19;;;;;;;1999.90;999.90;;;;;;;7.06;100.00;101067.50;11183580;26;19999;-66
2024/04/19 18:39:22;;;;;;;1999.90;999.90;;;;;;;6.81;100.00;101078.03;11183732;26;20000;-66
2024/04/19 18:44:24;;;;;;;1999.90;999.90;;;;;;;7.16;100.00;101078.41;11183597;26;20015;-66
2024/04/19 18:49:27;;;;;;;1999.90;999.90;;;;;;;6.85;100.00;101096.06;11214298;26;20385;-67
2024/04/19 18:54:29;;;;;;;1999.90;999.90;;;;;;;6.99;100.00;101113.78;11213902;26;20375;-66
2024/04/19 18:59:33;;;;;;;1999.90;999.90;;;;;;;6.93;100.00;101107.94;11214068;26;20053;-66
2024/04/19 19:04:36;;;;;;;1999.90;999.90;;;;;;;6.91;100.00;101118.41;11211863;26;20076;-66
2024/04/19 19:09:38;;;;;;;1999.90;999.90;;;;;;;6.73;100.00;101125.13;11213688;26;20031;-66
2024/04/19 19:14:44;;;;;;;1999.90;999.90;;;;;;;7.02;100.00;101138.84;11213183;26;19999;-66
2024/04/19 19:19:47;;;;;;;1999.90;999.90;;;;;;;6.63;100.00;101147.19;11213000;26;19999;-66
2024/04/19 19:24:51;;;;;;;1999.90;999.90;;;;;;;6.80;100.00;101150.03;11213196;26;20465;-66
2024/04/19 19:29:54;;;;;;;1999.90;999.90;;;;;;;6.80;100.00;101170.00;11212649;26;19999;-66
2024/04/19 19:34:57;;;;;;;1999.90;999.90;;;;;;;6.67;100.00;101200.81;11212758;26;19999;-66
2024/04/19 19:40:01;;;;;;;1999.90;999.90;;;;;;;6.38;100.00;101215.66;11212488;26;20000;-66
2024/04/19 19:45:04;;;;;;;1999.90;999.90;;;;;;;6.81;100.00;101219.41;11212627;26;19999;-66
2024/04/19 19:50:07;;;;;;;1999.90;999.90;;;;;;;6.23;100.00;101235.19;11211908;26;20000;-67
2024/04/19 19:55:09;;;;;;;1999.90;999.90;;;;;;;6.62;100.00;101219.19;11177102;26;20466;-66
2024/04/19 20:05:45;;;;;;;1999.90;999.90;;;;;;;6.18;100.00;101236.25;11211692;26;20014;-66
2024/04/19 20:10:48;;;;;;;1999.90;999.90;;;;;;;6.15;100.00;101239.78;11268386;21;20039;-64
2024/04/19 20:15:50;;;;;;;1999.90;999.90;;;;;;;5.89;100.00;101249.22;11285915;26;20441;-64
2024/04/19 20:20:54;;;;;;;1999.90;999.90;;;;;;;5.94;100.00;101249.09;11285794;26;20449;-64
2024/04/19 20:25:57;;;;;;;1999.90;999.90;;;;;;;6.32;100.00;101253.13;11285440;26;20038;-64
2024/04/19 20:31:00;;;;;;;1999.90;999.90;;;;;;;6.09;100.00;101268.59;11254093;26;19995;-64
2024/04/19 20:36:02;;;;;;;1999.90;999.90;;;;;;;6.20;100.00;101291.66;11285416;26;20014;-64
2024/04/19 20:41:05;;;;;;;1999.90;999.90;;;;;;;6.20;100.00;101287.31;11285265;26;20009;-65
2024/04/19 20:46:08;;;;;;;1999.90;999.90;;;;;;;6.10;100.00;101291.09;11284741;26;20335;-64
2024/04/19 20:51:10;;;;;;;1999.90;999.90;;;;;;;5.86;100.00;101303.91;11284760;26;20009;-64
2024/04/19 20:56:13;;;;;;;1999.90;999.90;;;;;;;6.05;100.00;101308.56;11223783;26;20013;-64
2024/04/19 21:01:16;;;;;;;1999.90;999.90;;;;;;;6.09;100.00;101318.84;11284318;26;20040;-64
2024/04/19 21:06:19;;;;;;;1999.90;999.90;;;;;;;6.01;100.00;101306.97;11252972;26;20035;-64
2024/04/19 21:11:22;;;;;;;1999.90;999.90;;;;;;;6.08;100.00;101318.88;11223364;26;20465;-64
2024/04/19 21:16:24;;;;;;;1999.90;999.90;;;;;;;5.89;100.00;101321.16;11284136;26;20007;-64
2024/04/19 21:21:27;;;;;;;1999.90;999.90;;;;;;;5.82;100.00;101330.03;11252271;26;20006;-64
2024/04/19 21:26:30;;;;;;;1999.90;999.90;;;;;;;5.66;100.00;101325.25;11255631;26;20013;-64
2024/04/19 21:31:32;;;;;;;1999.90;999.90;;;;;;;5.56;100.00;101336.81;11259594;26;19999;-64
2024/04/19 21:36:36;;;;;;;1999.90;999.90;;;;;;;5.83;100.00;101335.16;11291076;26;20000;-64
2024/04/19 21:41:39;;;;;;;1999.90;999.90;;;;;;;5.93;100.00;101346.16;11259408;26;19999;-64
2024/04/19 21:46:41;;;;;;;1999.90;999.90;;;;;;;5.67;100.00;101355.56;11289886;26;19999;-64
2024/04/19 21:51:44;;;;;;;1999.90;999.90;;;;;;;5.77;100.00;101358.75;11289955;26;20006;-64
2024/04/19 21:56:46;;;;;;;1999.90;999.90;;;;;;;5.62;100.00;101370.41;11258317;26;20007;-63
2024/04/19 22:01:49;;;;;;;1999.90;999.90;;;;;;;5.32;100.00;101374.69;11289474;26;20349;-64
2024/04/19 22:06:51;;;;;;;1999.90;999.90;;;;;;;5.30;100.00;101379.91;11258452;26;20010;-64